Fresno Yosemite International Airport Fresno US
ICAO: KFAT
IATA: FAT
Category: Medium
Scheduled Services: Yes

Elevation: 336 ft
TransAlt. 18000 ft.

Airport Communications:
APP/DEP:35.195
APP/DEP:118.5
ATIS:121.35
CLNC DEL:124.35
GND:121.7
ANG OPS:138.15
ARNG OPS:40.95
RANCHO RDO:122.2
TWR:118.2
UNICOM:122.95

KFAT Zoom In..

Runways:

(A) RW 11L length 9539 ft width 150 ft
LOC 111.30 / hdg 111

(B) RW 11R length 8008 ft width 150 ft
LOC 111.30 / hdg 111

(C) RW 29L length 8008 ft width 150 ft
LOC 111.30 / hdg 291

(D) RW 29R length 9539 ft width 150 ft
ILS 111.30 / hdg 291

Location; KFAT
Day. 29 / Time. 22.53 Zulu
* Altimeter: 30.10
* Temperature: 17° c. 62.6°f.
* Wind from: 300° Speed 03 kn.
Dewpoint: 06° c.
Visibility: 10 Statute Miles.
Clouds: Scattered 4000 ft.
Clouds: Broken 7000 ft.

KFAT 292253Z 30003KT 10SM SCT040 BKN070 17/06 A3010 RMK AO2 SLP191 MTNS OBSC DSNT N-E-SE T01720061


Wind From 300°
Speed 03 kn.

 
 
jpsmedia worldairports.se 2020   terms of use